sensor_id;sensor_type;location;lat;lon;timestamp;temperature;humidity
9662;DHT22;24982;52.344;12.990;2023-05-16T00:02:03;16.20;99.90
9662;DHT22;24982;52.344;12.990;2023-05-16T00:05:05;16.10;99.90
9662;DHT22;24982;52.344;12.990;2023-05-16T00:08:11;16.10;99.90
9662;DHT22;24982;52.344;12.990;2023-05-16T00:11:15;16.10;99.90
9662;DHT22;24982;52.344;12.990;2023-05-16T00:14:17;16.10;99.90
9662;DHT22;24982;52.344;12.990;2023-05-16T00:17:20;16.20;99.90
9662;DHT22;24982;52.344;12.990;2023-05-16T00:20:23;16.00;99.90
9662;DHT22;24982;52.344;12.990;2023-05-16T00:23:26;16.20;99.90
9662;DHT22;24982;52.344;12.990;2023-05-16T00:26:28;16.10;99.90
9662;DHT22;24982;52.344;12.990;2023-05-16T00:29:30;16.10;99.90
9662;DHT22;24982;52.344;12.990;2023-05-16T00:32:32;16.00;99.90
9662;DHT22;24982;52.344;12.990;2023-05-16T00:35:35;16.00;99.90
9662;DHT22;24982;52.344;12.990;2023-05-16T00:38:38;16.00;99.90
9662;DHT22;24982;52.344;12.990;2023-05-16T00:41:40;15.90;99.90
9662;DHT22;24982;52.344;12.990;2023-05-16T00:44:42;15.80;99.90
9662;DHT22;24982;52.344;12.990;2023-05-16T00:47:44;15.80;99.90
9662;DHT22;24982;52.344;12.990;2023-05-16T00:50:46;15.90;99.90
9662;DHT22;24982;52.344;12.990;2023-05-16T00:53:50;15.80;99.90
9662;DHT22;24982;52.344;12.990;2023-05-16T00:56:52;15.80;99.90
9662;DHT22;24982;52.344;12.990;2023-05-16T00:59:54;15.70;99.90
9662;DHT22;24982;52.344;12.990;2023-05-16T01:02:56;15.90;99.90
9662;DHT22;24982;52.344;12.990;2023-05-16T01:05:59;15.70;99.90
9662;DHT22;24982;52.344;12.990;2023-05-16T01:09:02;15.60;99.90
9662;DHT22;24982;52.344;12.990;2023-05-16T01:12:10;15.50;99.90
9662;DHT22;24982;52.344;12.990;2023-05-16T01:15:18;15.60;99.90
9662;DHT22;24982;52.344;12.990;2023-05-16T01:18:27;15.60;99.90
9662;DHT22;24982;52.344;12.990;2023-05-16T01:21:41;15.70;99.90
9662;DHT22;24982;52.344;12.990;2023-05-16T01:24:55;15.60;99.90
9662;DHT22;24982;52.344;12.990;2023-05-16T01:28:04;15.50;99.90
9662;DHT22;24982;52.344;12.990;2023-05-16T01:31:07;15.50;99.90
9662;DHT22;24982;52.344;12.990;2023-05-16T01:34:09;15.50;99.90
9662;DHT22;24982;52.344;12.990;2023-05-16T01:37:15;15.60;99.90
9662;DHT22;24982;52.344;12.990;2023-05-16T01:40:24;15.50;99.90
9662;DHT22;24982;52.344;12.990;2023-05-16T01:43:33;15.60;99.90
9662;DHT22;24982;52.344;12.990;2023-05-16T01:46:39;15.60;99.90
9662;DHT22;24982;52.344;12.990;2023-05-16T01:49:45;15.60;99.90
9662;DHT22;24982;52.344;12.990;2023-05-16T01:52:51;15.60;99.90
9662;DHT22;24982;52.344;12.990;2023-05-16T01:55:56;15.50;99.90
9662;DHT22;24982;52.344;12.990;2023-05-16T01:59:02;15.60;99.90
9662;DHT22;24982;52.344;12.990;2023-05-16T02:02:06;15.70;99.90
9662;DHT22;24982;52.344;12.990;2023-05-16T02:05:08;15.60;99.90
9662;DHT22;24982;52.344;12.990;2023-05-16T02:08:10;15.50;99.90
9662;DHT22;24982;52.344;12.990;2023-05-16T02:11:14;15.40;99.90
9662;DHT22;24982;52.344;12.990;2023-05-16T02:14:19;15.30;99.90
9662;DHT22;24982;52.344;12.990;2023-05-16T02:17:21;15.40;99.90
9662;DHT22;24982;52.344;12.990;2023-05-16T02:20:23;15.30;99.90
9662;DHT22;24982;52.344;12.990;2023-05-16T02:23:25;15.20;99.90
9662;DHT22;24982;52.344;12.990;2023-05-16T02:26:27;15.30;99.90
9662;DHT22;24982;52.344;12.990;2023-05-16T02:29:31;15.20;99.90
9662;DHT22;24982;52.344;12.990;2023-05-16T02:35:35;14.90;99.90
9662;DHT22;24982;52.344;12.990;2023-05-16T02:38:37;14.90;99.90
9662;DHT22;24982;52.344;12.990;2023-05-16T02:41:39;15.00;99.90
9662;DHT22;24982;52.344;12.990;2023-05-16T02:44:44;14.90;99.90
9662;DHT22;24982;52.344;12.990;2023-05-16T02:47:46;13.10;99.90
9662;DHT22;24982;52.344;12.990;2023-05-16T02:50:48;15.00;99.90
9662;DHT22;24982;52.344;12.990;2023-05-16T02:53:50;15.00;99.90
9662;DHT22;24982;52.344;12.990;2023-05-16T02:56:53;14.90;99.90
9662;DHT22;24982;52.344;12.990;2023-05-16T02:59:56;14.90;99.90
9662;DHT22;24982;52.344;12.990;2023-05-16T03:02:58;15.00;99.90
9662;DHT22;24982;52.344;12.990;2023-05-16T03:06:00;14.90;99.90
9662;DHT22;24982;52.344;12.990;2023-05-16T03:09:02;14.80;99.90
9662;DHT22;24982;52.344;12.990;2023-05-16T03:12:05;14.80;99.90
9662;DHT22;24982;52.344;12.990;2023-05-16T03:15:10;14.60;99.90
9662;DHT22;24982;52.344;12.990;2023-05-16T03:18:12;14.70;99.90
9662;DHT22;24982;52.344;12.990;2023-05-16T03:21:14;14.80;99.90
9662;DHT22;24982;52.344;12.990;2023-05-16T03:24:18;14.80;99.90
9662;DHT22;24982;52.344;12.990;2023-05-16T03:27:22;14.90;99.90
9662;DHT22;24982;52.344;12.990;2023-05-16T03:30:25;14.80;99.90
9662;DHT22;24982;52.344;12.990;2023-05-16T03:33:27;14.70;99.90
9662;DHT22;24982;52.344;12.990;2023-05-16T03:36:29;15.00;99.90
9662;DHT22;24982;52.344;12.990;2023-05-16T03:39:31;14.70;99.90
9662;DHT22;24982;52.344;12.990;2023-05-16T03:42:34;14.80;99.90
9662;DHT22;24982;52.344;12.990;2023-05-16T03:45:37;14.70;99.90
9662;DHT22;24982;52.344;12.990;2023-05-16T03:48:43;14.70;99.90
9662;DHT22;24982;52.344;12.990;2023-05-16T03:51:45;14.70;99.90
9662;DHT22;24982;52.344;12.990;2023-05-16T03:54:47;14.60;99.90
9662;DHT22;24982;52.344;12.990;2023-05-16T03:57:50;14.50;99.90
9662;DHT22;24982;52.344;12.990;2023-05-16T04:00:57;14.60;99.90
9662;DHT22;24982;52.344;12.990;2023-05-16T04:03:59;14.60;99.90
9662;DHT22;24982;52.344;12.990;2023-05-16T04:07:02;14.50;99.90
9662;DHT22;24982;52.344;12.990;2023-05-16T04:10:04;14.40;99.90
9662;DHT22;24982;52.344;12.990;2023-05-16T04:13:06;14.40;99.90
9662;DHT22;24982;52.344;12.990;2023-05-16T04:16:11;14.40;99.90
9662;DHT22;24982;52.344;12.990;2023-05-16T04:19:13;14.40;99.90
9662;DHT22;24982;52.344;12.990;2023-05-16T04:22:15;14.40;99.90
9662;DHT22;24982;52.344;12.990;2023-05-16T04:25:17;14.40;99.90
9662;DHT22;24982;52.344;12.990;2023-05-16T04:28:19;14.30;99.90
9662;DHT22;24982;52.344;12.990;2023-05-16T04:31:23;14.50;99.90
9662;DHT22;24982;52.344;12.990;2023-05-16T04:34:26;14.60;99.90
9662;DHT22;24982;52.344;12.990;2023-05-16T04:37:28;14.50;99.90
9662;DHT22;24982;52.344;12.990;2023-05-16T04:40:30;14.40;99.90
9662;DHT22;24982;52.344;12.990;2023-05-16T04:43:32;14.40;99.90
9662;DHT22;24982;52.344;12.990;2023-05-16T04:46:36;14.40;99.90
9662;DHT22;24982;52.344;12.990;2023-05-16T04:49:38;14.60;99.90
9662;DHT22;24982;52.344;12.990;2023-05-16T04:52:40;14.40;99.90
9662;DHT22;24982;52.344;12.990;2023-05-16T04:55:42;14.50;99.90
9662;DHT22;24982;52.344;12.990;2023-05-16T04:58:44;14.50;99.90
9662;DHT22;24982;52.344;12.990;2023-05-16T05:01:47;14.50;99.90
9662;DHT22;24982;52.344;12.990;2023-05-16T05:04:50;14.50;99.90
9662;DHT22;24982;52.344;12.990;2023-05-16T05:07:52;14.50;99.90
9662;DHT22;24982;52.344;12.990;2023-05-16T05:10:58;14.60;99.90
9662;DHT22;24982;52.344;12.990;2023-05-16T05:14:00;14.50;99.90
9662;DHT22;24982;52.344;12.990;2023-05-16T05:17:03;14.50;99.90
9662;DHT22;24982;52.344;12.990;2023-05-16T05:20:06;14.50;99.90
9662;DHT22;24982;52.344;12.990;2023-05-16T05:23:10;14.50;99.90
9662;DHT22;24982;52.344;12.990;2023-05-16T05:26:12;14.50;99.90
9662;DHT22;24982;52.344;12.990;2023-05-16T05:29:14;14.50;99.90
9662;DHT22;24982;52.344;12.990;2023-05-16T05:32:17;14.60;99.90
9662;DHT22;24982;52.344;12.990;2023-05-16T05:35:19;14.60;99.90
9662;DHT22;24982;52.344;12.990;2023-05-16T05:38:24;14.70;99.90
9662;DHT22;24982;52.344;12.990;2023-05-16T05:41:26;14.70;99.90
9662;DHT22;24982;52.344;12.990;2023-05-16T05:44:28;14.60;99.90
9662;DHT22;24982;52.344;12.990;2023-05-16T05:47:31;14.50;99.90
9662;DHT22;24982;52.344;12.990;2023-05-16T05:50:33;14.40;99.90
9662;DHT22;24982;52.344;12.990;2023-05-16T05:53:35;14.40;99.90
9662;DHT22;24982;52.344;12.990;2023-05-16T05:56:37;14.50;99.90
9662;DHT22;24982;52.344;12.990;2023-05-16T05:59:39;14.60;99.90
9662;DHT22;24982;52.344;12.990;2023-05-16T06:02:43;14.60;99.90
9662;DHT22;24982;52.344;12.990;2023-05-16T06:05:46;14.80;99.90
9662;DHT22;24982;52.344;12.990;2023-05-16T06:08:48;14.70;99.90
9662;DHT22;24982;52.344;12.990;2023-05-16T06:11:50;14.80;99.90
9662;DHT22;24982;52.344;12.990;2023-05-16T06:14:52;14.80;99.90
9662;DHT22;24982;52.344;12.990;2023-05-16T06:17:56;14.80;99.90
9662;DHT22;24982;52.344;12.990;2023-05-16T06:20:58;14.90;99.90
9662;DHT22;24982;52.344;12.990;2023-05-16T06:24:01;14.80;99.90
9662;DHT22;24982;52.344;12.990;2023-05-16T06:27:03;14.90;99.90
9662;DHT22;24982;52.344;12.990;2023-05-16T06:30:06;14.80;99.90
9662;DHT22;24982;52.344;12.990;2023-05-16T06:33:10;14.80;99.90
9662;DHT22;24982;52.344;12.990;2023-05-16T06:36:12;14.70;99.90
9662;DHT22;24982;52.344;12.990;2023-05-16T06:39:14;14.60;99.90
9662;DHT22;24982;52.344;12.990;2023-05-16T06:42:16;14.80;99.90
9662;DHT22;24982;52.344;12.990;2023-05-16T06:45:18;14.80;99.90
9662;DHT22;24982;52.344;12.990;2023-05-16T06:48:22;14.70;99.90
9662;DHT22;24982;52.344;12.990;2023-05-16T06:51:24;14.70;99.90
9662;DHT22;24982;52.344;12.990;2023-05-16T06:54:26;14.70;99.90
9662;DHT22;24982;52.344;12.990;2023-05-16T06:57:28;14.80;99.90
9662;DHT22;24982;52.344;12.990;2023-05-16T07:00:30;14.80;99.90
9662;DHT22;24982;52.344;12.990;2023-05-16T07:03:34;14.80;99.90
9662;DHT22;24982;52.344;12.990;2023-05-16T07:06:36;14.90;99.90
9662;DHT22;24982;52.344;12.990;2023-05-16T07:09:38;14.80;99.90
9662;DHT22;24982;52.344;12.990;2023-05-16T07:12:41;14.80;99.90
9662;DHT22;24982;52.344;12.990;2023-05-16T07:15:43;14.80;99.90
9662;DHT22;24982;52.344;12.990;2023-05-16T07:18:46;14.90;99.90
9662;DHT22;24982;52.344;12.990;2023-05-16T07:21:48;15.00;99.90
9662;DHT22;24982;52.344;12.990;2023-05-16T07:24:51;14.90;99.90
9662;DHT22;24982;52.344;12.990;2023-05-16T07:27:56;14.90;99.90
9662;DHT22;24982;52.344;12.990;2023-05-16T07:30:59;15.00;99.90
9662;DHT22;24982;52.344;12.990;2023-05-16T07:34:02;15.10;99.90
9662;DHT22;24982;52.344;12.990;2023-05-16T07:37:07;15.00;99.90
9662;DHT22;24982;52.344;12.990;2023-05-16T07:40:12;15.00;99.90
9662;DHT22;24982;52.344;12.990;2023-05-16T07:43:15;14.80;99.90
9662;DHT22;24982;52.344;12.990;2023-05-16T07:46:17;15.00;99.90
9662;DHT22;24982;52.344;12.990;2023-05-16T07:49:20;15.00;99.90
9662;DHT22;24982;52.344;12.990;2023-05-16T07:52:22;15.10;99.90
9662;DHT22;24982;52.344;12.990;2023-05-16T07:55:27;15.10;99.90
9662;DHT22;24982;52.344;12.990;2023-05-16T07:58:29;15.10;99.90
9662;DHT22;24982;52.344;12.990;2023-05-16T08:01:31;15.20;99.90
9662;DHT22;24982;52.344;12.990;2023-05-16T08:04:35;15.20;99.90
9662;DHT22;24982;52.344;12.990;2023-05-16T08:07:37;15.20;99.90
9662;DHT22;24982;52.344;12.990;2023-05-16T08:10:39;15.10;99.90
9662;DHT22;24982;52.344;12.990;2023-05-16T08:13:41;15.20;99.90
9662;DHT22;24982;52.344;12.990;2023-05-16T08:16:43;15.10;99.90
9662;DHT22;24982;52.344;12.990;2023-05-16T08:19:47;15.10;99.90
9662;DHT22;24982;52.344;12.990;2023-05-16T08:23:04;15.10;99.90
9662;DHT22;24982;52.344;12.990;2023-05-16T08:26:06;15.10;99.90
9662;DHT22;24982;52.344;12.990;2023-05-16T08:29:08;15.00;99.90
9662;DHT22;24982;52.344;12.990;2023-05-16T08:32:10;14.90;99.90
9662;DHT22;24982;52.344;12.990;2023-05-16T08:35:12;14.80;99.90
9662;DHT22;24982;52.344;12.990;2023-05-16T08:38:15;14.70;99.90
9662;DHT22;24982;52.344;12.990;2023-05-16T08:41:17;14.60;99.90
9662;DHT22;24982;52.344;12.990;2023-05-16T08:44:19;14.70;99.90
9662;DHT22;24982;52.344;12.990;2023-05-16T08:47:23;14.70;99.90
9662;DHT22;24982;52.344;12.990;2023-05-16T08:50:30;14.70;99.90
9662;DHT22;24982;52.344;12.990;2023-05-16T08:53:38;14.60;99.90
9662;DHT22;24982;52.344;12.990;2023-05-16T08:56:41;14.70;99.90
9662;DHT22;24982;52.344;12.990;2023-05-16T08:59:44;14.80;99.90
9662;DHT22;24982;52.344;12.990;2023-05-16T09:02:47;14.80;99.90
9662;DHT22;24982;52.344;12.990;2023-05-16T09:05:49;15.00;99.90
9662;DHT22;24982;52.344;12.990;2023-05-16T09:08:53;14.80;99.90
9662;DHT22;24982;52.344;12.990;2023-05-16T09:11:56;14.70;99.90
9662;DHT22;24982;52.344;12.990;2023-05-16T09:14:58;14.60;99.90
9662;DHT22;24982;52.344;12.990;2023-05-16T09:18:00;14.50;99.90
9662;DHT22;24982;52.344;12.990;2023-05-16T09:21:03;14.30;99.90
9662;DHT22;24982;52.344;12.990;2023-05-16T09:24:08;14.40;99.90
9662;DHT22;24982;52.344;12.990;2023-05-16T09:27:11;14.50;99.90
9662;DHT22;24982;52.344;12.990;2023-05-16T09:30:14;14.50;99.90
9662;DHT22;24982;52.344;12.990;2023-05-16T09:33:17;14.50;99.90
9662;DHT22;24982;52.344;12.990;2023-05-16T09:36:19;14.50;99.90
9662;DHT22;24982;52.344;12.990;2023-05-16T09:39:26;14.60;99.90
9662;DHT22;24982;52.344;12.990;2023-05-16T09:42:28;14.60;99.90
9662;DHT22;24982;52.344;12.990;2023-05-16T09:45:32;14.70;99.90
9662;DHT22;24982;52.344;12.990;2023-05-16T09:48:36;14.70;99.90
9662;DHT22;24982;52.344;12.990;2023-05-16T09:51:41;14.80;99.90
9662;DHT22;24982;52.344;12.990;2023-05-16T09:54:47;14.70;99.90
9662;DHT22;24982;52.344;12.990;2023-05-16T09:57:49;14.80;99.90
9662;DHT22;24982;52.344;12.990;2023-05-16T10:00:52;14.90;99.90
9662;DHT22;24982;52.344;12.990;2023-05-16T10:03:54;14.90;99.90
9662;DHT22;24982;52.344;12.990;2023-05-16T10:06:56;15.00;99.90
9662;DHT22;24982;52.344;12.990;2023-05-16T10:10:05;15.00;99.90
9662;DHT22;24982;52.344;12.990;2023-05-16T10:13:09;15.00;99.90
9662;DHT22;24982;52.344;12.990;2023-05-16T10:16:13;14.90;99.90
9662;DHT22;24982;52.344;12.990;2023-05-16T10:19:16;15.00;99.90
9662;DHT22;24982;52.344;12.990;2023-05-16T10:22:21;15.00;99.90
9662;DHT22;24982;52.344;12.990;2023-05-16T10:25:29;15.00;99.90
9662;DHT22;24982;52.344;12.990;2023-05-16T10:28:33;14.90;99.90
9662;DHT22;24982;52.344;12.990;2023-05-16T10:31:36;14.90;99.90
9662;DHT22;24982;52.344;12.990;2023-05-16T10:34:38;14.90;99.90
9662;DHT22;24982;52.344;12.990;2023-05-16T10:37:41;15.00;99.90
9662;DHT22;24982;52.344;12.990;2023-05-16T10:40:46;15.10;99.90
9662;DHT22;24982;52.344;12.990;2023-05-16T10:43:55;15.00;99.90
9662;DHT22;24982;52.344;12.990;2023-05-16T10:46:58;15.00;99.90
9662;DHT22;24982;52.344;12.990;2023-05-16T10:50:00;15.10;99.90
9662;DHT22;24982;52.344;12.990;2023-05-16T10:53:19;15.20;99.90
9662;DHT22;24982;52.344;12.990;2023-05-16T10:56:23;15.20;99.90
9662;DHT22;24982;52.344;12.990;2023-05-16T10:59:25;15.10;99.90
9662;DHT22;24982;52.344;12.990;2023-05-16T11:02:29;15.00;99.90
9662;DHT22;24982;52.344;12.990;2023-05-16T11:05:32;15.00;99.90
9662;DHT22;24982;52.344;12.990;2023-05-16T11:08:35;15.00;99.90
9662;DHT22;24982;52.344;12.990;2023-05-16T11:11:42;15.10;99.90
9662;DHT22;24982;52.344;12.990;2023-05-16T11:14:50;15.30;99.90
9662;DHT22;24982;52.344;12.990;2023-05-16T11:18:03;15.10;99.90
9662;DHT22;24982;52.344;12.990;2023-05-16T11:21:06;15.30;99.90
9662;DHT22;24982;52.344;12.990;2023-05-16T11:24:27;15.40;99.90
9662;DHT22;24982;52.344;12.990;2023-05-16T11:27:32;15.40;99.90
9662;DHT22;24982;52.344;12.990;2023-05-16T11:30:34;15.40;99.90
9662;DHT22;24982;52.344;12.990;2023-05-16T11:33:38;15.50;99.90
9662;DHT22;24982;52.344;12.990;2023-05-16T11:36:40;15.70;99.90
9662;DHT22;24982;52.344;12.990;2023-05-16T11:39:42;15.70;99.90
9662;DHT22;24982;52.344;12.990;2023-05-16T11:42:47;15.70;99.90
9662;DHT22;24982;52.344;12.990;2023-05-16T11:45:53;15.60;99.90
9662;DHT22;24982;52.344;12.990;2023-05-16T11:48:56;15.90;99.90
9662;DHT22;24982;52.344;12.990;2023-05-16T11:51:58;16.40;99.90
9662;DHT22;24982;52.344;12.990;2023-05-16T11:55:00;16.70;99.90
9662;DHT22;24982;52.344;12.990;2023-05-16T11:58:05;16.90;99.90
9662;DHT22;24982;52.344;12.990;2023-05-16T12:01:07;16.70;99.90
9662;DHT22;24982;52.344;12.990;2023-05-16T12:04:12;16.50;99.90
9662;DHT22;24982;52.344;12.990;2023-05-16T12:07:14;16.40;99.90
9662;DHT22;24982;52.344;12.990;2023-05-16T12:10:16;16.50;99.90
9662;DHT22;24982;52.344;12.990;2023-05-16T12:13:21;16.50;99.90
9662;DHT22;24982;52.344;12.990;2023-05-16T12:16:23;16.80;99.90
9662;DHT22;24982;52.344;12.990;2023-05-16T12:19:26;17.00;99.90
9662;DHT22;24982;52.344;12.990;2023-05-16T12:22:28;17.20;99.90
9662;DHT22;24982;52.344;12.990;2023-05-16T12:25:31;17.40;99.90
9662;DHT22;24982;52.344;12.990;2023-05-16T12:28:37;17.40;99.90
9662;DHT22;24982;52.344;12.990;2023-05-16T12:31:39;17.20;99.90
9662;DHT22;24982;52.344;12.990;2023-05-16T12:34:48;17.20;99.90
9662;DHT22;24982;52.344;12.990;2023-05-16T12:37:50;17.10;99.90
9662;DHT22;24982;52.344;12.990;2023-05-16T12:40:57;17.20;99.90
9662;DHT22;24982;52.344;12.990;2023-05-16T12:44:10;17.20;99.90
9662;DHT22;24982;52.344;12.990;2023-05-16T12:47:12;17.20;99.90
9662;DHT22;24982;52.344;12.990;2023-05-16T12:50:15;17.10;99.90
9662;DHT22;24982;52.344;12.990;2023-05-16T12:53:18;17.20;99.90
9662;DHT22;24982;52.344;12.990;2023-05-16T12:56:20;17.20;99.90
9662;DHT22;24982;52.344;12.990;2023-05-16T12:59:23;17.10;99.90
9662;DHT22;24982;52.344;12.990;2023-05-16T13:02:26;17.20;99.90
9662;DHT22;24982;52.344;12.990;2023-05-16T13:05:28;17.40;99.90
9662;DHT22;24982;52.344;12.990;2023-05-16T13:08:30;17.60;99.90
9662;DHT22;24982;52.344;12.990;2023-05-16T13:11:32;17.80;99.90
9662;DHT22;24982;52.344;12.990;2023-05-16T13:14:36;18.10;99.90
9662;DHT22;24982;52.344;12.990;2023-05-16T13:17:39;18.20;99.90
9662;DHT22;24982;52.344;12.990;2023-05-16T13:20:41;18.10;99.90
9662;DHT22;24982;52.344;12.990;2023-05-16T13:23:44;18.20;99.90
9662;DHT22;24982;52.344;12.990;2023-05-16T13:26:45;18.20;99.90
9662;DHT22;24982;52.344;12.990;2023-05-16T13:29:49;18.20;99.90
9662;DHT22;24982;52.344;12.990;2023-05-16T13:32:51;18.10;99.90
9662;DHT22;24982;52.344;12.990;2023-05-16T13:35:53;18.20;99.90
9662;DHT22;24982;52.344;12.990;2023-05-16T13:38:56;18.50;99.90
9662;DHT22;24982;52.344;12.990;2023-05-16T13:41:58;18.50;99.40
9662;DHT22;24982;52.344;12.990;2023-05-16T13:45:02;18.50;99.20
9662;DHT22;24982;52.344;12.990;2023-05-16T13:48:04;18.30;99.90
9662;DHT22;24982;52.344;12.990;2023-05-16T13:51:07;18.30;97.80
9662;DHT22;24982;52.344;12.990;2023-05-16T13:54:10;18.10;98.30
9662;DHT22;24982;52.344;12.990;2023-05-16T13:57:12;17.90;99.50
9662;DHT22;24982;52.344;12.990;2023-05-16T14:00:16;18.00;98.70
9662;DHT22;24982;52.344;12.990;2023-05-16T14:03:18;18.00;99.90
9662;DHT22;24982;52.344;12.990;2023-05-16T14:06:20;18.30;98.70
9662;DHT22;24982;52.344;12.990;2023-05-16T14:09:22;18.40;97.40
9662;DHT22;24982;52.344;12.990;2023-05-16T14:12:24;18.40;96.80
9662;DHT22;24982;52.344;12.990;2023-05-16T14:15:28;18.40;96.60
9662;DHT22;24982;52.344;12.990;2023-05-16T14:18:30;18.50;96.40
9662;DHT22;24982;52.344;12.990;2023-05-16T14:21:32;18.60;94.80
9662;DHT22;24982;52.344;12.990;2023-05-16T14:24:34;18.70;94.30
9662;DHT22;24982;52.344;12.990;2023-05-16T14:27:37;18.80;94.00
9662;DHT22;24982;52.344;12.990;2023-05-16T14:30:40;19.10;95.10
9662;DHT22;24982;52.344;12.990;2023-05-16T14:33:42;19.20;93.90
9662;DHT22;24982;52.344;12.990;2023-05-16T14:36:44;19.40;93.30
9662;DHT22;24982;52.344;12.990;2023-05-16T14:39:46;19.50;93.30
9662;DHT22;24982;52.344;12.990;2023-05-16T14:42:50;19.60;94.30
9662;DHT22;24982;52.344;12.990;2023-05-16T14:45:53;19.70;92.10
9662;DHT22;24982;52.344;12.990;2023-05-16T14:48:55;19.80;92.10
9662;DHT22;24982;52.344;12.990;2023-05-16T14:51:58;19.90;91.10
9662;DHT22;24982;52.344;12.990;2023-05-16T14:55:01;19.90;91.70
9662;DHT22;24982;52.344;12.990;2023-05-16T14:58:04;20.30;91.00
9662;DHT22;24982;52.344;12.990;2023-05-16T15:01:08;20.10;89.80
9662;DHT22;24982;52.344;12.990;2023-05-16T15:04:11;20.30;93.50
9662;DHT22;24982;52.344;12.990;2023-05-16T15:07:13;20.10;86.50
9662;DHT22;24982;52.344;12.990;2023-05-16T15:10:18;20.00;88.00
9662;DHT22;24982;52.344;12.990;2023-05-16T15:13:20;20.00;86.10
9662;DHT22;24982;52.344;12.990;2023-05-16T15:16:25;20.00;88.40
9662;DHT22;24982;52.344;12.990;2023-05-16T15:19:27;19.90;85.30
9662;DHT22;24982;52.344;12.990;2023-05-16T15:22:29;19.80;85.60
9662;DHT22;24982;52.344;12.990;2023-05-16T15:25:31;19.70;88.00
9662;DHT22;24982;52.344;12.990;2023-05-16T15:28:33;19.60;86.10
9662;DHT22;24982;52.344;12.990;2023-05-16T15:31:37;19.60;90.60
9662;DHT22;24982;52.344;12.990;2023-05-16T15:34:39;19.50;89.30
9662;DHT22;24982;52.344;12.990;2023-05-16T15:37:41;19.30;87.70
9662;DHT22;24982;52.344;12.990;2023-05-16T15:40:43;20.00;89.30
9662;DHT22;24982;52.344;12.990;2023-05-16T15:43:45;19.30;90.00
9662;DHT22;24982;52.344;12.990;2023-05-16T15:46:48;19.10;90.00
9662;DHT22;24982;52.344;12.990;2023-05-16T15:49:50;18.90;86.70
9662;DHT22;24982;52.344;12.990;2023-05-16T15:52:52;18.70;90.00
9662;DHT22;24982;52.344;12.990;2023-05-16T15:55:55;18.60;90.00
9662;DHT22;24982;52.344;12.990;2023-05-16T15:58:57;18.50;90.60
9662;DHT22;24982;52.344;12.990;2023-05-16T16:02:00;18.40;90.40
9662;DHT22;24982;52.344;12.990;2023-05-16T16:05:05;18.20;89.10
9662;DHT22;24982;52.344;12.990;2023-05-16T16:08:08;18.20;89.80
9662;DHT22;24982;52.344;12.990;2023-05-16T16:11:10;18.20;90.30
9662;DHT22;24982;52.344;12.990;2023-05-16T16:14:11;18.10;91.60
9662;DHT22;24982;52.344;12.990;2023-05-16T16:17:15;18.20;91.70
9662;DHT22;24982;52.344;12.990;2023-05-16T16:20:17;18.10;90.90
9662;DHT22;24982;52.344;12.990;2023-05-16T16:23:19;18.10;86.20
9662;DHT22;24982;52.344;12.990;2023-05-16T16:26:21;18.00;87.60
9662;DHT22;24982;52.344;12.990;2023-05-16T16:29:24;17.90;83.50
9662;DHT22;24982;52.344;12.990;2023-05-16T16:32:27;17.90;89.70
9662;DHT22;24982;52.344;12.990;2023-05-16T16:35:29;17.90;88.60
9662;DHT22;24982;52.344;12.990;2023-05-16T16:38:31;17.90;89.00
9662;DHT22;24982;52.344;12.990;2023-05-16T16:41:33;18.00;90.70
9662;DHT22;24982;52.344;12.990;2023-05-16T16:44:35;17.90;91.90
9662;DHT22;24982;52.344;12.990;2023-05-16T16:47:39;17.80;91.30
9662;DHT22;24982;52.344;12.990;2023-05-16T16:50:41;17.70;90.30
9662;DHT22;24982;52.344;12.990;2023-05-16T16:53:43;17.70;90.00
9662;DHT22;24982;52.344;12.990;2023-05-16T16:56:45;17.60;92.00
9662;DHT22;24982;52.344;12.990;2023-05-16T16:59:49;17.60;90.60
9662;DHT22;24982;52.344;12.990;2023-05-16T17:02:52;17.60;92.50
9662;DHT22;24982;52.344;12.990;2023-05-16T17:05:54;17.50;91.60
9662;DHT22;24982;52.344;12.990;2023-05-16T17:08:56;17.40;90.10
9662;DHT22;24982;52.344;12.990;2023-05-16T17:12:02;17.40;92.10
9662;DHT22;24982;52.344;12.990;2023-05-16T17:15:08;17.30;91.20
9662;DHT22;24982;52.344;12.990;2023-05-16T17:18:12;17.20;92.60
9662;DHT22;24982;52.344;12.990;2023-05-16T17:21:14;17.20;93.50
9662;DHT22;24982;52.344;12.990;2023-05-16T17:24:16;17.20;92.40
9662;DHT22;24982;52.344;12.990;2023-05-16T17:27:19;16.60;92.00
9662;DHT22;24982;52.344;12.990;2023-05-16T17:30:21;17.20;91.90
9662;DHT22;24982;52.344;12.990;2023-05-16T17:33:24;17.10;92.00
9662;DHT22;24982;52.344;12.990;2023-05-16T17:36:26;17.10;92.40
9662;DHT22;24982;52.344;12.990;2023-05-16T17:39:29;17.00;91.70
9662;DHT22;24982;52.344;12.990;2023-05-16T17:42:31;17.00;92.60
9662;DHT22;24982;52.344;12.990;2023-05-16T17:45:33;16.90;92.10
9662;DHT22;24982;52.344;12.990;2023-05-16T17:48:36;16.90;91.80
9662;DHT22;24982;52.344;12.990;2023-05-16T17:51:46;16.90;91.20
9662;DHT22;24982;52.344;12.990;2023-05-16T17:54:49;16.80;90.60
9662;DHT22;24982;52.344;12.990;2023-05-16T17:57:51;16.80;92.50
9662;DHT22;24982;52.344;12.990;2023-05-16T18:00:53;16.80;90.70
9662;DHT22;24982;52.344;12.990;2023-05-16T18:03:57;16.70;90.30
9662;DHT22;24982;52.344;12.990;2023-05-16T18:06:59;17.00;89.30
9662;DHT22;24982;52.344;12.990;2023-05-16T18:10:02;16.60;90.40
9662;DHT22;24982;52.344;12.990;2023-05-16T18:13:04;16.00;91.10
9662;DHT22;24982;52.344;12.990;2023-05-16T18:16:06;16.60;91.30
9662;DHT22;24982;52.344;12.990;2023-05-16T18:19:11;16.40;88.00
9662;DHT22;24982;52.344;12.990;2023-05-16T18:22:13;16.30;92.10
9662;DHT22;24982;52.344;12.990;2023-05-16T18:25:15;16.40;91.50
9662;DHT22;24982;52.344;12.990;2023-05-16T18:28:18;16.40;92.80
9662;DHT22;24982;52.344;12.990;2023-05-16T18:31:21;16.30;91.90
9662;DHT22;24982;52.344;12.990;2023-05-16T18:34:24;16.30;92.90
9662;DHT22;24982;52.344;12.990;2023-05-16T18:37:26;16.20;91.90
9662;DHT22;24982;52.344;12.990;2023-05-16T18:40:28;16.20;92.80
9662;DHT22;24982;52.344;12.990;2023-05-16T18:43:31;16.20;92.50
9662;DHT22;24982;52.344;12.990;2023-05-16T18:46:34;16.20;94.40
9662;DHT22;24982;52.344;12.990;2023-05-16T18:49:38;16.10;92.40
9662;DHT22;24982;52.344;12.990;2023-05-16T18:52:40;16.10;92.60
9662;DHT22;24982;52.344;12.990;2023-05-16T18:55:42;16.00;94.00
9662;DHT22;24982;52.344;12.990;2023-05-16T18:58:44;16.00;91.70
9662;DHT22;24982;52.344;12.990;2023-05-16T19:01:46;15.90;94.50
9662;DHT22;24982;52.344;12.990;2023-05-16T19:04:49;15.90;95.30
9662;DHT22;24982;52.344;12.990;2023-05-16T19:07:51;15.80;93.50
9662;DHT22;24982;52.344;12.990;2023-05-16T19:10:55;15.90;95.80
9662;DHT22;24982;52.344;12.990;2023-05-16T19:13:57;15.70;94.70
9662;DHT22;24982;52.344;12.990;2023-05-16T19:16:59;15.80;96.90
9662;DHT22;24982;52.344;12.990;2023-05-16T19:20:03;15.70;95.30